Schneifelwetter: Wetterstation Hallschlag, 537 m . NN
Wetterdaten: Sonntag, 15.03.2009
Datum Zeit Temp. A. Temp. 2 Feuchte A. Luftdruck Regen Wind Richtung Richtung Sonnenschein Helligkeit T Regen Taupunkt Windchill
15.03.2009 00:01 5,4 C 5,0 C 94 % 1019 hPa 0,0 l/m 21,6 km/h (4 Bft) W45 270 0 min 0 lux 0,00 min 4,5 C -3,3 C
15.03.2009 00:16 5,3 C 4,9 C 94 % 1019 hPa 0,0 l/m 14,6 km/h (3 Bft) W22.5 260 0 min 0 lux 0,00 min 4,4 C -0,4 C
15.03.2009 00:31 5,2 C 4,8 C 94 % 1019 hPa 0,0 l/m 13,5 km/h (3 Bft) W22.5 275 0 min 0 lux 0,00 min 4,3 C 0,1 C
15.03.2009 00:46 5,1 C 4,7 C 94 % 1019 hPa 0,0 l/m 11,5 km/h (2 Bft) W-SW22.5 255 0 min 0 lux 0,00 min 4,2 C 1,2 C
15.03.2009 01:01 4,9 C 4,6 C 93 % 1019 hPa 0,0 l/m 6,9 km/h (2 Bft) W-SW 255 0 min 0 lux 0,00 min 3,9 C 4,5 C
15.03.2009 01:16 4,9 C 4,6 C 94 % 1019 hPa 0,0 l/m 15,8 km/h (3 Bft) W-SW22.5 255 0 min 0 lux 0,00 min 4,0 C -1,4 C
15.03.2009 01:31 5,1 C 4,7 C 94 % 1020 hPa 0,0 l/m 23,1 km/h (4 Bft) W45 280 0 min 0 lux 0,00 min 4,2 C -4,2 C
15.03.2009 01:46 4,9 C 4,6 C 93 % 1020 hPa 0,0 l/m 15,3 km/h (3 Bft) W-NW45 285 0 min 0 lux 0,00 min 3,9 C -1,2 C
15.03.2009 02:01 4,9 C 4,7 C 93 % 1020 hPa 0,0 l/m 15,1 km/h (3 Bft) W22.5 260 0 min 0 lux 0,00 min 3,9 C -1,1 C
15.03.2009 02:16 4,9 C 4,7 C 93 % 1020 hPa 0,0 l/m 15,0 km/h (3 Bft) W22.5 260 0 min 0 lux 0,00 min 3,9 C -1,0 C
15.03.2009 02:31 4,9 C 4,6 C 93 % 1020 hPa 0,0 l/m 20,5 km/h (4 Bft) W22.5 270 0 min 0 lux 0,00 min 3,9 C -3,5 C
15.03.2009 02:46 4,8 C 4,6 C 93 % 1020 hPa 0,0 l/m 16,6 km/h (3 Bft) W45 270 0 min 0 lux 0,00 min 3,8 C -2,0 C
15.03.2009 03:01 4,7 C 4,5 C 93 % 1020 hPa 0,0 l/m 16,4 km/h (3 Bft) W-SW22.5 255 0 min 0 lux 0,00 min 3,7 C -2,0 C
15.03.2009 03:16 4,6 C 4,4 C 93 % 1020 hPa 0,0 l/m 14,6 km/h (3 Bft) W22.5 265 0 min 0 lux 0,00 min 3,6 C -1,2 C
15.03.2009 03:31 4,5 C 4,4 C 93 % 1020 hPa 0,0 l/m 14,1 km/h (3 Bft) W-SW22.5 255 0 min 0 lux 0,00 min 3,5 C -1,0 C
15.03.2009 03:46 4,5 C 4,4 C 93 % 1020 hPa 0,0 l/m 14,6 km/h (3 Bft) W22.5 260 0 min 0 lux 0,00 min 3,5 C -1,3 C
15.03.2009 04:01 4,4 C 4,3 C 93 % 1020 hPa 0,0 l/m 10,7 km/h (2 Bft) W-SW22.5 250 0 min 0 lux 0,00 min 3,4 C 0,9 C
15.03.2009 04:16 4,4 C 4,3 C 93 % 1020 hPa 0,0 l/m 16,1 km/h (3 Bft) W-SW22.5 255 0 min 0 lux 0,00 min 3,4 C -2,2 C
15.03.2009 04:31 4,4 C 4,2 C 93 % 1020 hPa 0,0 l/m 21,1 km/h (4 Bft) W22.5 265 0 min 0 lux 0,00 min 3,4 C -4,4 C
15.03.2009 04:46 4,3 C 4,2 C 93 % 1021 hPa 0,0 l/m 20,6 km/h (4 Bft) W22.5 260 0 min 0 lux 0,00 min 3,3 C -4,3 C
15.03.2009 05:01 4,2 C 4,1 C 93 % 1021 hPa 0,0 l/m 18,0 km/h (3 Bft) W22.5 260 0 min 0 lux 0,00 min 3,2 C -3,4 C
15.03.2009 05:16 4,2 C 4,1 C 92 % 1021 hPa 0,0 l/m 21,4 km/h (4 Bft) W22.5 260 0 min 0 lux 0,00 min 3,0 C -4,8 C
15.03.2009 05:31 4,1 C 3,9 C 92 % 1021 hPa 0,0 l/m 15,6 km/h (3 Bft) W22.5 260 0 min 0 lux 0,00 min 2,9 C -2,3 C
15.03.2009 05:46 3,9 C 3,8 C 92 % 1021 hPa 0,0 l/m 20,9 km/h (4 Bft) W22.5 265 0 min 0 lux 0,00 min 2,7 C -5,0 C
15.03.2009 06:01 3,8 C 3,7 C 92 % 1022 hPa 0,0 l/m 13,7 km/h (3 Bft) W22.5 260 0 min 0 lux 0,00 min 2,6 C -1,7 C
15.03.2009 06:16 3,8 C 3,7 C 93 % 1022 hPa 0,0 l/m 13,4 km/h (3 Bft) W-SW22.5 255 0 min 0 lux 0,00 min 2,8 C -1,5 C
15.03.2009 06:31 3,8 C 3,7 C 93 % 1022 hPa 0,0 l/m 13,3 km/h (3 Bft) W22.5 260 0 min 0 lux 0,00 min 2,8 C -1,4 C
15.03.2009 06:46 3,9 C 3,7 C 93 % 1022 hPa 0,0 l/m 16,5 km/h (3 Bft) W22.5 260 0 min 85 lux 0,00 min 2,9 C -3,0 C
15.03.2009 07:01 3,8 C 3,7 C 93 % 1022 hPa 0,0 l/m 11,1 km/h (2 Bft) W22.5 275 0 min 258 lux 0,00 min 2,8 C -0,0 C
15.03.2009 07:16 3,8 C 3,7 C 93 % 1022 hPa 0,0 l/m 14,9 km/h (3 Bft) W22.5 260 0 min 655 lux 0,00 min 2,8 C -2,3 C
15.03.2009 07:31 3,9 C 3,8 C 92 % 1022 hPa 0,0 l/m 16,6 km/h (3 Bft) W-SW22.5 255 0 min 1,32 klux 0,00 min 2,7 C -3,1 C
15.03.2009 07:46 3,9 C 3,8 C 93 % 1023 hPa 0,0 l/m 13,6 km/h (3 Bft) W22.5 260 0 min 1,92 klux 0,00 min 2,9 C -1,5 C
15.03.2009 08:01 3,9 C 3,9 C 93 % 1023 hPa 0,0 l/m 13,5 km/h (3 Bft) W22.5 270 0 min 3,43 klux 0,00 min 2,9 C -1,4 C
15.03.2009 08:16 4,0 C 4,0 C 92 % 1023 hPa 0,0 l/m 16,8 km/h (3 Bft) W22.5 270 0 min 4,94 klux 0,00 min 2,8 C -3,0 C
15.03.2009 08:31 4,1 C 4,1 C 92 % 1023 hPa 0,0 l/m 13,8 km/h (3 Bft) W22.5 260 0 min 3,92 klux 0,00 min 2,9 C -1,4 C
15.03.2009 08:46 4,2 C 4,2 C 92 % 1023 hPa 0,0 l/m 14,8 km/h (3 Bft) W22.5 265 0 min 5,27 klux 0,00 min 3,0 C -1,8 C
15.03.2009 09:01 4,3 C 4,5 C 92 % 1023 hPa 0,0 l/m 13,3 km/h (3 Bft) W22.5 260 0 min 6,55 klux 0,00 min 3,1 C -0,8 C
15.03.2009 09:16 4,5 C 4,7 C 91 % 1024 hPa 0,0 l/m 18,6 km/h (3 Bft) W22.5 265 0 min 10,4 klux 0,00 min 3,2 C -3,2 C
15.03.2009 09:31 4,8 C 5,0 C 91 % 1024 hPa 0,0 l/m 19,4 km/h (3 Bft) W45 270 0 min 13,8 klux 0,00 min 3,5 C -3,2 C
15.03.2009 09:46 5,1 C 5,2 C 89 % 1024 hPa 0,0 l/m 17,1 km/h (3 Bft) W-NW45 290 0 min 11,8 klux 0,00 min 3,4 C -1,8 C
15.03.2009 10:01 5,3 C 5,5 C 89 % 1024 hPa 0,0 l/m 15,2 km/h (3 Bft) W45 270 0 min 20,7 klux 0,00 min 3,6 C -0,7 C
15.03.2009 10:16 5,6 C 5,9 C 89 % 1024 hPa 0,0 l/m 16,6 km/h (3 Bft) W22.5 270 0 min 19,2 klux 0,00 min 3,9 C -1,0 C
15.03.2009 10:31 6,0 C 6,3 C 87 % 1024 hPa 0,0 l/m 19,2 km/h (3 Bft) W22.5 260 0 min 20,0 klux 0,00 min 4,0 C -1,6 C
15.03.2009 10:46 6,1 C 6,5 C 83 % 1024 hPa 0,0 l/m 19,8 km/h (3 Bft) W-NW45 285 0 min 21,2 klux 0,00 min 3,4 C -1,7 C
15.03.2009 11:01 6,4 C 6,9 C 83 % 1024 hPa 0,0 l/m 23,6 km/h (4 Bft) W22.5 265 0 min 27,5 klux 0,00 min 3,7 C -2,6 C
15.03.2009 11:16 6,7 C 7,8 C 81 % 1024 hPa 0,0 l/m 27,8 km/h (4 Bft) W22.5 280 15 min 78,7 klux 0,00 min 3,7 C -3,4 C
15.03.2009 11:31 7,1 C 8,4 C 78 % 1024 hPa 0,0 l/m 28,8 km/h (4 Bft) W45 275 15 min 86,1 klux 0,00 min 3,5 C -3,1 C
15.03.2009 11:46 7,1 C 8,1 C 76 % 1025 hPa 0,0 l/m 30,0 km/h (5 Bft) W45 275 15 min 28,4 klux 0,00 min 3,2 C -3,4 C
15.03.2009 12:01 7,2 C 8,6 C 77 % 1025 hPa 0,0 l/m 27,8 km/h (4 Bft) W45 270 15 min 70,5 klux 0,00 min 3,4 C -2,7 C
15.03.2009 12:16 7,7 C 9,8 C 76 % 1025 hPa 0,0 l/m 24,5 km/h (4 Bft) W22.5 270 15 min 74,6 klux 0,00 min 3,7 C -1,1 C
15.03.2009 12:31 7,9 C 9,9 C 72 % 1025 hPa 0,0 l/m 36,2 km/h (5 Bft) W45 260 15 min 42,6 klux 0,00 min 3,2 C -3,6 C
15.03.2009 12:46 7,7 C 9,3 C 74 % 1025 hPa 0,0 l/m 30,8 km/h (5 Bft) W45 275 15 min 57,4 klux 0,00 min 3,4 C -2,8 C
15.03.2009 13:01 7,9 C 10,1 C 74 % 1025 hPa 0,0 l/m 29,6 km/h (5 Bft) W22.5 265 15 min 91,2 klux 0,00 min 3,6 C -2,2 C
15.03.2009 13:16 8,0 C 9,9 C 72 % 1024 hPa 0,0 l/m 28,3 km/h (4 Bft) W45 265 15 min 52,7 klux 0,00 min 3,3 C -1,8 C
15.03.2009 13:31 8,2 C 10,2 C 70 % 1024 hPa 0,0 l/m 30,6 km/h (5 Bft) W45 280 15 min 85,7 klux 0,00 min 3,1 C -2,0 C
15.03.2009 13:46 8,2 C 9,5 C 71 % 1025 hPa 0,0 l/m 31,7 km/h (5 Bft) W22.5 265 15 min 31,2 klux 0,00 min 3,3 C -2,3 C
15.03.2009 14:01 8,1 C 9,6 C 69 % 1025 hPa 0,0 l/m 37,3 km/h (5 Bft) W45 275 15 min 83,8 klux 0,00 min 2,8 C -3,5 C
15.03.2009 14:16 7,9 C 9,1 C 71 % 1025 hPa 0,0 l/m 23,8 km/h (4 Bft) W45 270 0 min 26,7 klux 0,00 min 3,0 C -0,7 C
15.03.2009 14:31 8,1 C 10,1 C 72 % 1025 hPa 0,0 l/m 32,7 km/h (5 Bft) W-NW45 290 15 min 70,1 klux 0,00 min 3,4 C -2,6 C
15.03.2009 14:46 8,0 C 10,7 C 70 % 1025 hPa 0,0 l/m 29,0 km/h (5 Bft) W-NW45 285 15 min 35,4 klux 0,00 min 2,9 C -1,9 C
15.03.2009 15:01 8,7 C 12,4 C 70 % 1025 hPa 0,0 l/m 29,4 km/h (5 Bft) W45 275 15 min 74,1 klux 0,00 min 3,5 C -1,0 C
15.03.2009 15:16 8,5 C 11,1 C 71 % 1025 hPa 0,0 l/m 34,8 km/h (5 Bft) W67.5 280 15 min 32,4 klux 0,00 min 3,5 C -2,4 C
15.03.2009 15:31 8,1 C 9,7 C 72 % 1025 hPa 0,0 l/m 26,5 km/h (4 Bft) W67.5 275 0 min 21,3 klux 0,00 min 3,4 C -1,2 C
15.03.2009 15:46 8,0 C 9,2 C 71 % 1025 hPa 0,0 l/m 25,9 km/h (4 Bft) W-SW45 255 0 min 19,6 klux 0,00 min 3,1 C -1,1 C
15.03.2009 16:01 7,6 C 8,6 C 72 % 1025 hPa 0,0 l/m 30,6 km/h (5 Bft) W45 275 0 min 10,3 klux 0,00 min 2,9 C -2,9 C
15.03.2009 16:16 7,3 C 7,8 C 73 % 1025 hPa 0,0 l/m 30,2 km/h (5 Bft) W22.5 260 0 min 8,99 klux 0,00 min 2,8 C -3,2 C
15.03.2009 16:31 7,2 C 7,6 C 76 % 1025 hPa 0,0 l/m 19,7 km/h (3 Bft) W45 275 0 min 10,0 klux 0,00 min 3,3 C -0,2 C
15.03.2009 16:46 7,0 C 7,1 C 76 % 1025 hPa 0,0 l/m 24,6 km/h (4 Bft) W-NW45 290 0 min 6,56 klux 0,00 min 3,1 C -2,1 C
15.03.2009 17:01 6,8 C 6,9 C 77 % 1025 hPa 0,0 l/m 22,7 km/h (4 Bft) W45 265 0 min 2,86 klux 0,00 min 3,1 C -1,8 C
15.03.2009 17:16 6,6 C 6,6 C 77 % 1026 hPa 0,0 l/m 19,8 km/h (3 Bft) W-NW22.5 285 0 min 1,55 klux 0,00 min 2,9 C -1,0 C
15.03.2009 17:31 6,6 C 6,6 C 79 % 1026 hPa 0,0 l/m 21,2 km/h (4 Bft) W45 280 0 min 5,05 klux 0,00 min 3,2 C -1,5 C
15.03.2009 17:46 6,5 C 6,6 C 80 % 1026 hPa 0,0 l/m 18,5 km/h (3 Bft) W45 265 0 min 3,33 klux 0,00 min 3,3 C -0,7 C
15.03.2009 18:01 6,4 C 6,4 C 80 % 1026 hPa 0,0 l/m 24,5 km/h (4 Bft) W45 270 0 min 1,55 klux 0,00 min 3,2 C -2,9 C
15.03.2009 18:16 6,3 C 6,3 C 80 % 1026 hPa 0,0 l/m 21,6 km/h (4 Bft) W45 280 0 min 1,62 klux 0,00 min 3,1 C -2,1 C
15.03.2009 18:31 6,1 C 6,1 C 81 % 1026 hPa 0,0 l/m 19,8 km/h (3 Bft) W22.5 275 0 min 419 lux 0,00 min 3,1 C -1,7 C
15.03.2009 18:46 6,1 C 5,9 C 82 % 1027 hPa 0,0 l/m 22,3 km/h (4 Bft) W45 280 0 min 162 lux 0,00 min 3,3 C -2,6 C
15.03.2009 19:01 5,9 C 5,8 C 82 % 1027 hPa 0,0 l/m 15,5 km/h (3 Bft) W45 280 0 min 50 lux 0,00 min 3,1 C -0,1 C
15.03.2009 19:16 5,6 C 5,6 C 83 % 1027 hPa 0,0 l/m 15,3 km/h (3 Bft) W22.5 275 0 min 10 lux 0,00 min 2,9 C -0,3 C
15.03.2009 19:31 5,6 C 5,5 C 84 % 1027 hPa 0,0 l/m 11,0 km/h (2 Bft) W 260 0 min 0 lux 0,00 min 3,1 C 2,1 C
15.03.2009 19:46 5,5 C 5,4 C 85 % 1027 hPa 0,0 l/m 20,1 km/h (4 Bft) W67.5 280 0 min 0 lux 0,00 min 3,2 C -2,6 C
15.03.2009 20:01 5,4 C 5,2 C 86 % 1027 hPa 0,0 l/m 10,8 km/h (2 Bft) W-NW45 290 0 min 0 lux 0,00 min 3,3 C 2,0 C
15.03.2009 20:16 5,2 C 5,1 C 87 % 1028 hPa 0,0 l/m 12,5 km/h (3 Bft) W-NW45 295 0 min 0 lux 0,00 min 3,2 C 0,7 C
15.03.2009 20:31 5,1 C 5,0 C 88 % 1028 hPa 0,0 l/m 17,3 km/h (3 Bft) NW45 320 0 min 0 lux 0,00 min 3,3 C -1,9 C
15.03.2009 20:46 4,8 C 4,7 C 88 % 1028 hPa 0,0 l/m 9,1 km/h (2 Bft) W-NW45 285 0 min 0 lux 0,00 min 3,0 C 2,5 C
15.03.2009 21:01 4,7 C 4,6 C 89 % 1028 hPa 0,0 l/m 11,1 km/h (2 Bft) N-NW67.5 335 0 min 0 lux 0,00 min 3,0 C 1,0 C
15.03.2009 21:16 4,7 C 4,6 C 89 % 1028 hPa 0,0 l/m 18,3 km/h (3 Bft) N-NW45 335 0 min 0 lux 0,00 min 3,0 C -2,9 C
15.03.2009 21:31 4,7 C 4,5 C 89 % 1028 hPa 0,0 l/m 15,4 km/h (3 Bft) NW45 310 0 min 0 lux 0,00 min 3,0 C -1,5 C
15.03.2009 21:46 4,6 C 4,4 C 89 % 1028 hPa 0,0 l/m 19,1 km/h (3 Bft) NW45 325 0 min 0 lux 0,00 min 2,9 C -3,3 C
15.03.2009 22:01 4,6 C 4,4 C 89 % 1028 hPa 0,0 l/m 23,3 km/h (4 Bft) NW67.5 320 0 min 0 lux 0,00 min 2,9 C -4,9 C
15.03.2009 22:16 4,5 C 4,5 C 89 % 1028 hPa 0,0 l/m 16,6 km/h (3 Bft) N-NW67.5 330 0 min 0 lux 0,00 min 2,8 C -2,3 C
15.03.2009 22:31 4,5 C 4,5 C 89 % 1028 hPa 0,0 l/m 13,1 km/h (3 Bft) N-NW22.5 340 0 min 0 lux 0,00 min 2,8 C -0,5 C
15.03.2009 22:46 4,5 C 4,4 C 89 % 1028 hPa 0,0 l/m 15,8 km/h (3 Bft) NW45 310 0 min 0 lux 0,00 min 2,8 C -1,9 C
15.03.2009 23:01 4,5 C 4,5 C 90 % 1028 hPa 0,0 l/m 12,8 km/h (3 Bft) W-NW45 290 0 min 0 lux 0,00 min 3,0 C -0,3 C
15.03.2009 23:16 4,4 C 4,4 C 90 % 1028 hPa 0,0 l/m 12,1 km/h (2 Bft) NW45 325 0 min 0 lux 0,00 min 2,9 C 0,0 C
15.03.2009 23:31 4,5 C 4,4 C 90 % 1028 hPa 0,0 l/m 16,5 km/h (3 Bft) NW67.5 310 0 min 0 lux 0,00 min 3,0 C -2,3 C
15.03.2009 23:46 4,4 C 4,4 C 90 % 1028 hPa 0,0 l/m 7,2 km/h (2 Bft) W 270 0 min 0 lux 0,00 min 2,9 C 3,7 C
15.03.2009 23:55 4,4 C 4,4 C 91 % 1028 hPa 0,0 l/m 12,2 km/h (2 Bft) NW22.5 310 0 min 0 lux 0,00 min 3,1 C -0,1 C
_ Min-Zeit 06:01 06:01 14:01 00:01 - 01:01 - - - - - 06:01 05:46
Minimum _ 3,8 C 3,7 C 69 % 1019 hPa - 6,9 km/h (2 Bft) - - - - - 2,6 C -5,0 C
_ Max-Zeit 15:01 15:01 00:01 20:16 00:01 14:01 - - 11:16 13:01 00:01 00:01 01:01
Maximum _ 8,7 C 12,4 C 94 % 1028 hPa 0,0 l/m 37,3 km/h
W (5 Bft)
- - 15 min 91,2 klux 0,00 min 4,5 C 4,5 C
Durchschnitt _ 5,6 C 5,9 C 86 % 1024 hPa #0,0 l/m 19,3 km/h (3 Bft) W - #4:00 h 13,3 klux #0 min. 3,3 C -1,7 C